Time;durP1;ratioP1;P1;durP2;ratioP2;P2;SDS_P1;SDS_P2;PMS_P1;PMS_P2;Temp;Humidity;BMP_temperature;BMP_pressure;BME280_temperature;BME280_humidity;BME280_pressure;Samples;Min_cycle;Max_cycle;Signal;HPM_P1;HPM_P2
2023/10/05 00:02:10;;;;;;;13.10;6.70;;;;;;;22.60;49.92;102294.21;106843;1264;22520;-57
2023/10/05 00:04:41;;;;;;;13.70;6.80;;;;;;;22.61;49.48;102300.52;107073;1261;25347;-57
2023/10/05 00:07:19;;;;;;;11.20;7.20;;;;;;;22.60;49.03;102298.84;107066;1251;25337;-59
2023/10/05 00:09:47;;;;;;;10.20;6.60;;;;;;;22.61;48.87;102300.17;107133;1257;22524;-57
2023/10/05 00:12:31;;;;;;;10.00;6.90;;;;;;;22.61;48.64;102300.54;107118;1254;25504;-58
2023/10/05 00:15:13;;;;;;;11.50;7.10;;;;;;;22.60;48.57;102304.48;107084;1264;25364;-58
2023/10/05 00:17:41;;;;;;;11.00;7.00;;;;;;;22.60;48.60;102312.42;107032;1251;25372;-58
2023/10/05 00:20:11;;;;;;;8.30;6.20;;;;;;;22.59;48.33;102312.63;107017;1266;22521;-58
2023/10/05 00:22:40;;;;;;;10.20;6.50;;;;;;;22.59;48.58;102310.34;106952;1259;25501;-57
2023/10/05 00:25:10;;;;;;;9.80;6.10;;;;;;;22.59;48.30;102314.44;106781;1255;25340;-57
2023/10/05 00:27:37;;;;;;;9.40;6.30;;;;;;;22.56;48.08;102317.19;106880;1254;25312;-57
2023/10/05 00:30:06;;;;;;;10.30;6.20;;;;;;;22.55;48.12;102320.98;106755;1257;25353;-58
2023/10/05 00:32:39;;;;;;;11.40;6.60;;;;;;;22.54;48.14;102325.95;106839;1265;22587;-59
2023/10/05 00:35:28;;;;;;;11.70;6.50;;;;;;;22.53;48.42;102330.77;107108;1254;25344;-58
2023/10/05 00:38:12;;;;;;;11.00;6.20;;;;;;;22.54;48.51;102329.33;107111;1251;25405;-57
2023/10/05 00:40:43;;;;;;;11.60;7.20;;;;;;;22.52;48.33;102329.73;107082;1254;25322;-57
2023/10/05 00:45:46;;;;;;;12.50;7.70;;;;;;;22.48;48.26;102327.45;106810;1258;25331;-57
2023/10/05 00:48:27;;;;;;;12.60;7.70;;;;;;;22.45;48.22;102321.60;106821;1257;25362;-57
2023/10/05 00:51:03;;;;;;;12.90;9.00;;;;;;;22.42;48.11;102313.79;107195;1264;25356;-57
2023/10/05 00:53:31;;;;;;;12.00;8.00;;;;;;;22.39;47.76;102314.46;107122;1254;25334;-57
2023/10/05 00:56:08;;;;;;;12.80;8.50;;;;;;;22.36;47.48;102310.19;107220;1257;22599;-58
2023/10/05 00:58:44;;;;;;;15.10;8.80;;;;;;;22.33;47.29;102309.24;106885;1258;25331;-57
2023/10/05 01:01:27;;;;;;;13.20;8.20;;;;;;;22.32;47.09;102313.91;107192;1257;23325;-58
2023/10/05 01:06:42;;;;;;;11.00;7.00;;;;;;;22.27;46.82;102314.86;106922;1272;25353;-57
2023/10/05 01:09:54;;;;;;;10.00;6.40;;;;;;;22.23;47.14;102318.02;107113;1256;25318;-57
2023/10/05 01:12:16;;;;;;;9.90;5.30;;;;;;;22.20;47.16;102323.13;107091;1257;25312;-57
2023/10/05 01:14:51;;;;;;;9.50;5.40;;;;;;;22.16;46.94;102323.14;107027;1258;25341;-58
2023/10/05 01:17:20;;;;;;;8.60;5.70;;;;;;;22.12;47.23;102314.98;107163;1255;25365;-58
2023/10/05 01:19:56;;;;;;;8.90;5.70;;;;;;;22.09;47.00;102311.07;107169;1250;24386;-58
2023/10/05 01:22:24;;;;;;;10.40;5.70;;;;;;;21.93;47.20;102313.55;107151;1256;25417;-58
2023/10/05 01:24:51;;;;;;;7.90;5.90;;;;;;;21.81;47.57;102320.09;107193;1254;25331;-58
2023/10/05 01:27:21;;;;;;;8.40;6.20;;;;;;;21.78;47.17;102319.33;106918;1257;22528;-58
2023/10/05 01:29:49;;;;;;;9.20;6.20;;;;;;;21.75;46.36;102327.58;107048;1263;25481;-58
2023/10/05 01:32:16;;;;;;;8.80;6.60;;;;;;;21.72;46.02;102334.25;106830;1260;24207;-58
2023/10/05 01:34:49;;;;;;;13.10;7.60;;;;;;;21.69;45.20;102336.48;106899;1257;25398;-57
2023/10/05 01:37:18;;;;;;;12.90;7.40;;;;;;;21.67;44.94;102342.25;107134;1257;25331;-57
2023/10/05 01:39:45;;;;;;;11.30;7.70;;;;;;;21.65;44.51;102342.85;106853;1253;24368;-57
2023/10/05 01:42:14;;;;;;;10.00;7.70;;;;;;;21.62;44.57;102342.26;107142;1254;25170;-57
2023/10/05 01:44:41;;;;;;;14.50;7.20;;;;;;;21.61;44.54;102339.67;107031;1254;25321;-57
2023/10/05 01:47:08;;;;;;;9.60;7.50;;;;;;;21.59;44.26;102340.11;106733;1263;25315;-57
2023/10/05 01:49:35;;;;;;;11.60;8.10;;;;;;;21.55;44.24;102338.02;106888;1256;25433;-57
2023/10/05 01:52:02;;;;;;;9.80;7.60;;;;;;;21.52;44.13;102349.41;106804;1257;25667;-58
2023/10/05 01:54:32;;;;;;;9.30;7.60;;;;;;;21.49;43.96;102354.14;106810;1263;25338;-58
2023/10/05 01:57:04;;;;;;;13.30;7.80;;;;;;;21.47;43.69;102356.89;106856;1272;25353;-58
2023/10/05 01:59:33;;;;;;;8.70;6.60;;;;;;;21.46;43.76;102364.00;106772;1258;25392;-58
2023/10/05 02:02:01;;;;;;;10.20;7.60;;;;;;;21.44;43.99;102366.04;106846;1256;25481;-57
2023/10/05 02:04:30;;;;;;;10.50;7.00;;;;;;;21.43;43.77;102377.02;106768;1253;25392;-57
2023/10/05 02:06:57;;;;;;;12.60;7.70;;;;;;;21.58;43.36;102386.60;104430;1270;1003574;-57
2023/10/05 02:09:24;;;;;;;9.90;7.10;;;;;;;21.61;43.09;102393.03;106772;1257;25402;-58
2023/10/05 02:11:52;;;;;;;9.00;6.90;;;;;;;21.60;43.01;102395.73;106715;1261;25324;-57
2023/10/05 02:14:21;;;;;;;12.00;7.00;;;;;;;21.60;43.32;102392.02;106674;1263;25402;-57
2023/10/05 02:16:50;;;;;;;10.60;6.90;;;;;;;21.57;43.49;102398.48;106831;1263;22519;-57
2023/10/05 02:19:19;;;;;;;10.80;6.90;;;;;;;21.55;43.55;102401.74;106851;1256;25340;-58
2023/10/05 02:21:46;;;;;;;8.30;5.90;;;;;;;21.53;43.48;102397.59;107143;1251;25350;-57
2023/10/05 02:24:21;;;;;;;7.10;5.40;;;;;;;21.51;43.52;102397.34;107156;1256;25503;-58
2023/10/05 02:29:31;;;;;;;8.10;5.00;;;;;;;21.47;43.40;102404.19;107193;1263;25395;-56
2023/10/05 02:37:19;;;;;;;7.70;4.80;;;;;;;21.40;43.56;102408.71;107132;1264;25340;-57
2023/10/05 02:39:48;;;;;;;6.90;4.50;;;;;;;21.38;43.66;102410.41;106883;1256;22538;-58
2023/10/05 02:42:21;;;;;;;7.50;5.00;;;;;;;21.37;43.92;102414.32;106805;1256;25450;-57
2023/10/05 02:44:49;;;;;;;7.60;4.40;;;;;;;21.35;43.95;102413.70;107092;1264;25272;-58
2023/10/05 02:47:22;;;;;;;6.30;4.30;;;;;;;21.33;43.54;102419.77;106878;1266;25349;-58
2023/10/05 02:49:50;;;;;;;6.30;3.80;;;;;;;21.32;43.79;102416.84;107228;1251;23262;-57
2023/10/05 02:52:18;;;;;;;5.20;3.60;;;;;;;21.28;43.79;102418.39;107028;1256;25321;-58
2023/10/05 02:54:47;;;;;;;7.20;4.20;;;;;;;21.27;43.75;102421.81;107108;1258;25388;-57
2023/10/05 02:57:16;;;;;;;8.90;3.80;;;;;;;21.25;43.71;102422.92;107130;1250;27303;-58
2023/10/05 02:59:43;;;;;;;7.20;3.80;;;;;;;21.25;43.71;102423.98;107168;1260;24461;-58
2023/10/05 03:02:14;;;;;;;9.40;3.20;;;;;;;21.24;43.44;102427.20;106916;1267;25349;-57
2023/10/05 03:04:44;;;;;;;5.50;3.30;;;;;;;21.23;43.60;102428.32;107086;1257;25477;-58
2023/10/05 03:07:17;;;;;;;8.70;3.30;;;;;;;21.22;43.48;102430.31;107056;1262;25230;-57
2023/10/05 03:09:48;;;;;;;8.10;3.00;;;;;;;21.21;43.50;102432.98;106458;1264;1002848;-59
2023/10/05 03:12:20;;;;;;;7.50;3.80;;;;;;;21.20;43.45;102431.09;107091;1253;24268;-57
2023/10/05 03:14:50;;;;;;;7.60;3.40;;;;;;;21.18;43.52;102430.99;107132;1262;25430;-59
2023/10/05 03:17:21;;;;;;;4.90;3.20;;;;;;;21.16;43.49;102428.41;106879;1265;25500;-57
2023/10/05 03:19:52;;;;;;;4.30;2.90;;;;;;;21.14;43.34;102430.07;107157;1257;25331;-57
2023/10/05 03:22:23;;;;;;;3.90;2.80;;;;;;;21.12;43.22;102429.64;107115;1253;25405;-57
2023/10/05 03:24:53;;;;;;;4.30;3.10;;;;;;;21.10;43.31;102429.88;105683;1263;1003702;-58
2023/10/05 03:27:22;;;;;;;4.90;3.10;;;;;;;21.08;43.09;102429.08;107209;1250;25280;-58
2023/10/05 03:30:06;;;;;;;4.20;3.10;;;;;;;21.05;42.94;102425.13;106992;1256;25441;-58
2023/10/05 03:32:35;;;;;;;4.30;3.40;;;;;;;21.00;42.68;102427.05;107090;1253;25312;-58
2023/10/05 03:35:04;;;;;;;4.80;3.00;;;;;;;20.84;43.05;102425.90;106406;1251;1003362;-58
2023/10/05 03:37:31;;;;;;;3.80;3.10;;;;;;;20.78;43.11;102428.26;106993;1254;25451;-58
2023/10/05 03:42:29;;;;;;;4.50;2.60;;;;;;;20.71;43.19;102438.23;107160;1257;25417;-58
2023/10/05 03:45:03;;;;;;;6.10;3.10;;;;;;;20.69;43.06;102437.77;107152;1263;25330;-57
2023/10/05 03:47:37;;;;;;;6.40;3.10;;;;;;;20.66;43.07;102442.83;107123;1254;25359;-57
2023/10/05 03:50:08;;;;;;;6.80;3.20;;;;;;;20.62;43.20;102436.81;106859;1266;22535;-58
2023/10/05 03:52:35;;;;;;;4.50;2.90;;;;;;;20.59;43.31;102436.05;107073;1250;25347;-58
2023/10/05 03:55:10;;;;;;;6.20;3.10;;;;;;;20.57;43.23;102436.98;107078;1263;25408;-59
2023/10/05 03:57:44;;;;;;;5.50;2.60;;;;;;;20.55;43.19;102438.30;106965;1260;25331;-59
2023/10/05 04:00:31;;;;;;;4.20;2.80;;;;;;;20.53;43.05;102435.90;106834;1259;22615;-57
2023/10/05 04:02:58;;;;;;;4.30;3.40;;;;;;;20.51;43.35;102438.45;106789;1258;25343;-58
2023/10/05 04:05:26;;;;;;;4.10;2.70;;;;;;;20.49;43.25;102443.80;106619;1254;25443;-58
2023/10/05 04:07:55;;;;;;;10.60;3.30;;;;;;;20.47;43.31;102445.31;106980;1254;25334;-57
2023/10/05 04:10:34;;;;;;;4.60;3.10;;;;;;;20.45;43.36;102442.03;106971;1254;22520;-58
2023/10/05 04:13:01;;;;;;;3.90;3.40;;;;;;;20.42;43.30;102444.05;106866;1263;25359;-58
2023/10/05 04:15:29;;;;;;;6.20;3.30;;;;;;;20.40;43.41;102443.79;107134;1250;22539;-58
2023/10/05 04:17:56;;;;;;;5.30;3.00;;;;;;;20.38;43.53;102442.10;107145;1262;22639;-57
2023/10/05 04:20:29;;;;;;;3.80;2.80;;;;;;;20.36;43.60;102444.11;107124;1254;25433;-57
2023/10/05 04:22:56;;;;;;;3.50;2.70;;;;;;;20.35;43.79;102447.33;107184;1251;24213;-56
2023/10/05 04:25:23;;;;;;;11.60;3.30;;;;;;;20.34;44.23;102442.93;107055;1254;25459;-57
2023/10/05 04:27:52;;;;;;;4.40;3.00;;;;;;;20.34;44.25;102433.06;107167;1257;25347;-58
2023/10/05 04:30:21;;;;;;;14.80;3.30;;;;;;;20.34;44.19;102432.01;106849;1266;25349;-57
2023/10/05 04:32:48;;;;;;;4.70;2.30;;;;;;;20.34;43.74;102432.37;106857;1257;22533;-58
2023/10/05 04:35:28;;;;;;;4.30;2.70;;;;;;;20.35;43.19;102439.04;107113;1254;22520;-58
2023/10/05 04:37:56;;;;;;;4.20;2.50;;;;;;;20.35;42.58;102438.86;107119;1254;25464;-58
2023/10/05 04:40:24;;;;;;;7.90;2.90;;;;;;;20.35;42.31;102437.29;107157;1254;25346;-58
2023/10/05 04:42:52;;;;;;;4.30;2.80;;;;;;;20.35;42.29;102439.75;107200;1254;24193;-59
2023/10/05 04:45:23;;;;;;;4.50;2.70;;;;;;;20.35;42.29;102445.92;107027;1257;25335;-57
2023/10/05 04:47:58;;;;;;;5.80;3.10;;;;;;;20.35;42.33;102445.38;107167;1251;25328;-57
2023/10/05 04:50:27;;;;;;;4.90;2.90;;;;;;;20.35;42.41;102443.42;107094;1263;25377;-57
2023/10/05 04:52:55;;;;;;;5.10;2.60;;;;;;;20.36;42.57;102439.89;105352;1258;1003506;-58
2023/10/05 04:55:31;;;;;;;4.30;2.80;;;;;;;20.37;42.87;102444.93;107127;1256;25471;-58
2023/10/05 05:06:00;;;;;;;6.40;2.80;;;;;;;20.44;43.62;102462.33;107060;1267;25381;-57
2023/10/05 05:08:34;;;;;;;5.70;3.40;;;;;;;20.45;43.80;102480.27;107181;1266;25372;-58
2023/10/05 05:11:08;;;;;;;4.70;3.30;;;;;;;20.44;43.97;102491.58;107112;1267;25331;-58
2023/10/05 05:13:36;;;;;;;11.30;3.40;;;;;;;20.44;44.64;102505.70;107058;1270;25294;-57
2023/10/05 05:16:05;;;;;;;5.10;3.20;;;;;;;20.42;44.84;102503.13;106954;1267;22535;-59
2023/10/05 05:18:32;;;;;;;5.30;3.00;;;;;;;20.38;44.82;102502.91;106911;1267;25474;-59
2023/10/05 05:20:59;;;;;;;5.10;3.30;;;;;;;20.35;44.76;102507.41;106913;1266;25365;-57
2023/10/05 05:23:28;;;;;;;7.30;3.10;;;;;;;20.32;44.67;102508.91;106803;1269;25341;-58
2023/10/05 05:25:55;;;;;;;5.30;2.80;;;;;;;20.30;44.51;102514.30;106855;1270;25500;-57
2023/10/05 05:28:22;;;;;;;4.40;2.60;;;;;;;20.29;44.70;102514.16;106885;1267;25331;-59
2023/10/05 05:30:50;;;;;;;4.60;3.00;;;;;;;20.29;44.97;102515.02;106635;1274;25538;-58
2023/10/05 05:33:17;;;;;;;4.30;2.90;;;;;;;20.29;45.16;102517.47;107000;1266;25389;-58
2023/10/05 05:35:46;;;;;;;5.40;2.80;;;;;;;20.31;45.02;102519.19;106996;1250;22547;-58
2023/10/05 05:38:13;;;;;;;6.40;2.90;;;;;;;20.33;44.94;102522.11;107022;1267;22653;-57
2023/10/05 05:40:40;;;;;;;4.80;2.40;;;;;;;20.35;45.07;102526.27;107049;1270;25481;-58
2023/10/05 05:43:08;;;;;;;4.00;2.70;;;;;;;20.37;45.08;102531.46;107133;1266;25346;-58
2023/10/05 05:45:39;;;;;;;4.20;2.70;;;;;;;20.40;44.93;102533.88;107034;1267;25383;-57
2023/10/05 05:48:09;;;;;;;8.20;2.50;;;;;;;20.42;44.72;102532.73;107060;1253;25389;-59
2023/10/05 05:50:39;;;;;;;4.70;2.30;;;;;;;20.45;44.65;102532.98;106757;1267;24230;-56
2023/10/05 05:53:11;;;;;;;6.80;2.60;;;;;;;20.48;44.61;102533.40;106857;1266;25359;-56
2023/10/05 05:55:44;;;;;;;3.30;2.00;;;;;;;20.52;44.33;102534.14;107114;1274;22511;-58
2023/10/05 05:58:16;;;;;;;6.40;2.40;;;;;;;20.55;44.28;102537.55;106961;1267;22516;-57
2023/10/05 06:00:46;;;;;;;;;;;;;;;20.59;43.87;102532.29;106786;1267;25299;-57
2023/10/05 06:03:14;;;;;;;3.30;2.50;;;;;;;20.64;43.51;102536.35;107075;1267;23896;-58
2023/10/05 06:05:41;;;;;;;3.20;2.00;;;;;;;20.68;43.46;102538.50;106831;1274;25372;-54
2023/10/05 06:08:09;;;;;;;3.00;2.30;;;;;;;20.73;43.51;102537.61;107093;1267;25341;-56
2023/10/05 06:10:37;;;;;;;4.30;2.60;;;;;;;20.79;43.43;102541.63;107126;1266;25283;-57
2023/10/05 06:13:11;;;;;;;4.10;2.30;;;;;;;20.82;42.84;102543.98;107142;1267;24519;-56
2023/10/05 06:15:39;;;;;;;3.20;2.30;;;;;;;20.87;42.55;102541.71;106878;1275;25409;-55
2023/10/05 06:18:07;;;;;;;6.80;2.50;;;;;;;20.91;42.49;102540.66;107029;1274;25417;-55
2023/10/05 06:20:35;;;;;;;5.10;2.60;;;;;;;20.95;42.33;102535.91;106954;1257;25468;-55
2023/10/05 06:23:02;;;;;;;4.20;2.40;;;;;;;20.99;42.42;102533.31;107103;1266;25391;-58
2023/10/05 06:25:30;;;;;;;4.20;2.40;;;;;;;21.00;42.28;102528.15;107232;1266;26600;-57
2023/10/05 06:27:59;;;;;;;4.20;2.40;;;;;;;21.00;41.97;102527.26;110637;1266;23158;-56
2023/10/05 06:30:26;;;;;;;5.30;3.30;;;;;;;21.01;41.98;102526.54;110592;1274;22225;-57
2023/10/05 06:32:54;;;;;;;4.40;2.60;;;;;;;21.01;41.84;102528.64;110617;1274;22169;-58
2023/10/05 06:35:21;;;;;;;3.50;2.60;;;;;;;21.04;42.06;102531.39;110542;1275;22272;-59
2023/10/05 06:37:49;;;;;;;6.80;2.70;;;;;;;21.10;41.71;102533.48;110584;1274;22393;-61
2023/10/05 06:40:21;;;;;;;5.10;2.40;;;;;;;21.16;41.60;102537.65;110657;1266;22437;-60
2023/10/05 06:42:51;;;;;;;3.50;2.50;;;;;;;21.24;41.52;102535.79;110596;1274;22446;-59
2023/10/05 06:45:23;;;;;;;3.50;2.20;;;;;;;21.32;41.40;102540.23;110648;1266;22394;-57
2023/10/05 06:47:51;;;;;;;4.20;2.40;;;;;;;21.40;40.94;102543.98;110408;1273;22223;-55
2023/10/05 06:50:18;;;;;;;5.10;2.40;;;;;;;21.48;40.98;102547.91;110589;1272;22155;-56
2023/10/05 06:52:46;;;;;;;6.20;2.10;;;;;;;21.56;40.87;102552.33;110595;1267;22156;-56
2023/10/05 06:55:14;;;;;;;4.80;2.70;;;;;;;21.62;41.01;102554.75;110615;1266;22505;-56
2023/10/05 06:57:44;;;;;;;6.00;2.50;;;;;;;21.68;42.82;102561.05;110591;1270;22465;-55
2023/10/05 07:00:16;;;;;;;4.50;2.40;;;;;;;21.73;44.11;102559.45;110593;1274;22390;-54
2023/10/05 07:02:44;;;;;;;3.40;2.70;;;;;;;21.75;44.39;102560.23;110615;1274;22286;-58
2023/10/05 07:05:12;;;;;;;3.60;2.30;;;;;;;21.76;44.39;102563.92;110215;1273;22128;-58
2023/10/05 07:07:40;;;;;;;2.70;2.10;;;;;;;21.77;44.42;102568.98;110625;1266;22184;-57
2023/10/05 07:10:14;;;;;;;8.10;2.70;;;;;;;21.77;44.94;102571.63;110303;1272;22098;-59
2023/10/05 07:12:46;;;;;;;4.40;3.00;;;;;;;21.77;45.26;102569.87;110372;1274;22348;-59
2023/10/05 07:15:14;;;;;;;4.70;2.50;;;;;;;21.75;45.59;102568.39;110582;1274;22190;-60
2023/10/05 07:17:41;;;;;;;2.80;2.40;;;;;;;21.71;46.01;102571.35;110617;1274;22488;-57
2023/10/05 07:20:11;;;;;;;4.90;2.70;;;;;;;21.69;46.03;102571.23;110598;1266;22490;-56
2023/10/05 07:22:39;;;;;;;4.80;2.30;;;;;;;21.75;45.64;102572.79;110127;1274;22392;-57
2023/10/05 07:25:17;;;;;;;7.60;2.80;;;;;;;21.78;45.51;102571.06;110580;1274;22294;-56
2023/10/05 07:27:44;;;;;;;4.00;2.40;;;;;;;21.81;45.48;102575.19;110557;1270;22282;-57
2023/10/05 07:30:13;;;;;;;6.30;2.90;;;;;;;21.84;45.11;102571.02;110597;1272;23220;-58
2023/10/05 07:32:40;;;;;;;4.90;2.90;;;;;;;21.86;45.39;102576.45;110574;1267;22412;-57
2023/10/05 07:35:08;;;;;;;4.10;2.90;;;;;;;21.88;45.60;102574.75;110622;1267;22477;-59
2023/10/05 07:37:35;;;;;;;3.60;2.50;;;;;;;21.91;45.26;102576.04;110628;1266;22285;-56
2023/10/05 07:40:09;;;;;;;4.10;2.40;;;;;;;21.95;45.31;102577.32;110634;1270;22695;-57
2023/10/05 07:42:37;;;;;;;3.40;2.50;;;;;;;22.00;45.17;102578.86;110601;1274;22413;-56
2023/10/05 07:45:07;;;;;;;5.00;2.90;;;;;;;22.12;44.60;102578.71;110601;1271;22951;-59
2023/10/05 07:47:44;;;;;;;4.00;2.70;;;;;;;22.28;44.08;102584.05;110651;1266;22183;-60
2023/10/05 07:50:11;;;;;;;5.30;2.30;;;;;;;22.32;44.01;102580.69;110596;1266;22245;-60
2023/10/05 07:52:40;;;;;;;4.30;2.70;;;;;;;22.37;43.60;102584.73;110281;1272;22291;-56
2023/10/05 07:55:08;;;;;;;4.60;2.60;;;;;;;22.43;43.51;102584.30;110488;1269;22158;-58
2023/10/05 07:57:34;;;;;;;2.90;2.50;;;;;;;22.49;43.07;102581.92;110624;1266;23128;-62
2023/10/05 08:00:03;;;;;;;3.50;2.70;;;;;;;22.52;42.91;102578.40;110572;1266;22337;-56
2023/10/05 08:02:38;;;;;;;4.20;2.30;;;;;;;22.58;42.63;102582.96;110418;1274;22303;-60
2023/10/05 08:05:06;;;;;;;3.80;2.40;;;;;;;22.62;42.42;102587.38;110574;1274;22295;-57
2023/10/05 08:07:33;;;;;;;4.30;2.70;;;;;;;22.68;42.31;102586.64;110587;1266;23267;-57
2023/10/05 08:10:00;;;;;;;4.60;3.00;;;;;;;22.66;42.51;102588.33;110556;1266;22347;-60
2023/10/05 08:12:29;;;;;;;5.40;2.60;;;;;;;22.59;42.16;102590.89;110575;1267;22834;-58
2023/10/05 08:14:56;;;;;;;3.90;2.60;;;;;;;22.61;41.78;102593.09;110596;1274;22170;-58
2023/10/05 08:17:24;;;;;;;6.00;2.30;;;;;;;22.64;41.57;102592.27;110177;1274;22507;-55
2023/10/05 08:19:50;;;;;;;4.30;2.00;;;;;;;22.68;41.13;102594.06;110627;1266;22152;-57
2023/10/05 08:22:17;;;;;;;4.30;2.30;;;;;;;22.71;40.95;102592.35;110626;1266;22311;-55
2023/10/05 08:24:44;;;;;;;5.10;2.50;;;;;;;22.74;40.55;102593.79;110603;1274;22478;-65
2023/10/05 08:27:14;;;;;;;4.90;2.30;;;;;;;22.79;40.59;102596.42;110580;1274;22180;-58
2023/10/05 08:29:42;;;;;;;3.40;2.60;;;;;;;22.83;40.56;102595.16;110591;1266;22257;-57
2023/10/05 08:32:13;;;;;;;4.10;2.70;;;;;;;22.90;40.38;102597.34;110580;1271;22380;-57
2023/10/05 08:34:41;;;;;;;;;;;;;;;22.96;39.85;102592.30;110567;1266;22471;-61
2023/10/05 08:37:08;;;;;;;5.50;3.20;;;;;;;23.01;39.51;102589.23;110556;1251;22422;-58
2023/10/05 08:39:37;;;;;;;5.20;2.40;;;;;;;23.06;39.51;102587.40;110633;1266;22226;-59
2023/10/05 08:42:07;;;;;;;3.00;2.40;;;;;;;23.12;39.08;102588.02;110578;1269;22236;-59
2023/10/05 08:44:44;;;;;;;3.10;2.40;;;;;;;23.16;39.13;102581.27;110582;1267;22333;-59
2023/10/05 08:47:12;;;;;;;3.80;2.80;;;;;;;23.20;38.76;102580.38;110524;1269;23260;-60
2023/10/05 08:49:43;;;;;;;5.60;2.90;;;;;;;23.23;38.52;102580.61;110560;1266;22336;-56
2023/10/05 08:52:19;;;;;;;4.00;2.70;;;;;;;23.27;38.26;102582.55;110609;1266;22443;-63
2023/10/05 08:54:46;;;;;;;5.50;2.90;;;;;;;23.31;38.13;102578.66;110577;1266;23051;-60
2023/10/05 08:57:14;;;;;;;7.70;3.20;;;;;;;23.33;38.05;102577.86;110584;1266;22540;-58
2023/10/05 08:59:47;;;;;;;5.30;3.10;;;;;;;23.37;38.07;102576.43;110571;1270;22290;-58
2023/10/05 09:02:21;;;;;;;4.90;2.80;;;;;;;23.43;38.10;102579.70;110577;1267;22337;-57
2023/10/05 09:04:58;;;;;;;3.00;2.70;;;;;;;23.48;37.31;102574.52;110538;1266;22772;-57
2023/10/05 09:07:34;;;;;;;7.50;2.90;;;;;;;23.50;36.77;102574.04;110591;1267;22263;-57
2023/10/05 09:10:05;;;;;;;4.50;3.00;;;;;;;23.54;36.80;102571.59;110586;1266;22379;-58
2023/10/05 09:12:35;;;;;;;3.70;2.90;;;;;;;23.57;36.93;102569.83;110583;1266;22785;-57
2023/10/05 09:15:21;;;;;;;4.10;2.70;;;;;;;23.59;36.68;102570.96;110582;1266;22323;-55
2023/10/05 09:20:38;;;;;;;4.20;2.70;;;;;;;23.66;36.63;102571.52;110568;1263;22591;-57
2023/10/05 09:23:06;;;;;;;3.70;2.70;;;;;;;23.68;36.59;102569.98;110566;1270;22410;-59
2023/10/05 09:25:37;;;;;;;3.30;2.10;;;;;;;23.71;36.25;102568.59;110430;1266;22208;-62
2023/10/05 09:28:12;;;;;;;3.50;2.60;;;;;;;23.75;36.16;102566.48;110543;1267;23233;-57
2023/10/05 09:30:55;;;;;;;;;;;;;;;23.79;35.81;102568.05;110587;1269;22424;-58
2023/10/05 09:33:28;;;;;;;7.40;2.50;;;;;;;23.83;35.63;102564.48;110539;1271;22461;-58
2023/10/05 09:36:01;;;;;;;3.60;2.90;;;;;;;23.85;35.55;102563.67;110570;1266;22406;-61
2023/10/05 09:38:28;;;;;;;3.80;2.20;;;;;;;23.88;35.39;102558.56;110423;1272;22300;-59
2023/10/05 09:40:55;;;;;;;3.00;2.30;;;;;;;23.92;35.33;102556.59;110530;1274;22277;-57
2023/10/05 09:43:23;;;;;;;6.00;2.60;;;;;;;23.96;35.41;102552.86;110519;1269;22126;-57
2023/10/05 09:45:53;;;;;;;5.10;2.70;;;;;;;23.99;35.43;102555.70;110526;1270;22209;-58
2023/10/05 09:48:21;;;;;;;3.50;2.40;;;;;;;24.02;35.18;102551.66;110555;1274;23149;-59
2023/10/05 09:50:48;;;;;;;3.70;2.80;;;;;;;24.05;34.95;102546.59;110582;1266;22151;-56
2023/10/05 09:53:19;;;;;;;5.10;2.30;;;;;;;24.08;35.45;102543.05;110556;1267;23184;-57
2023/10/05 09:55:53;;;;;;;3.00;2.30;;;;;;;24.11;35.51;102540.59;110365;1272;22172;-64
2023/10/05 09:58:22;;;;;;;6.10;2.70;;;;;;;24.14;35.15;102535.66;110516;1269;22288;-57
2023/10/05 10:00:55;;;;;;;4.10;2.70;;;;;;;24.17;34.53;102536.03;110589;1269;23349;-60
2023/10/05 10:03:22;;;;;;;4.10;2.30;;;;;;;24.20;34.48;102534.29;110550;1267;22279;-57
2023/10/05 10:06:06;;;;;;;3.60;2.20;;;;;;;24.27;34.47;102533.39;110582;1267;22535;-57
2023/10/05 10:08:34;;;;;;;5.30;2.40;;;;;;;24.47;33.94;102527.06;110581;1272;22183;-58
2023/10/05 10:11:07;;;;;;;3.40;2.10;;;;;;;24.52;33.95;102528.20;110422;1274;22337;-56
2023/10/05 10:13:38;;;;;;;8.70;2.40;;;;;;;24.56;33.56;102527.84;110543;1270;22434;-58
2023/10/05 10:16:21;;;;;;;2.90;2.10;;;;;;;24.58;33.73;102519.71;110551;1267;22462;-57
2023/10/05 10:19:18;;;;;;;4.50;2.30;;;;;;;24.62;33.17;102512.43;110559;1267;23346;-57
2023/10/05 10:21:48;;;;;;;4.10;2.30;;;;;;;24.64;33.39;102513.00;110531;1269;22440;-58
2023/10/05 10:24:20;;;;;;;3.20;2.00;;;;;;;24.66;32.98;102509.70;110596;1260;22433;-57
2023/10/05 10:26:56;;;;;;;3.80;2.60;;;;;;;24.70;32.86;102506.48;110525;1260;22427;-59
2023/10/05 10:29:38;;;;;;;4.40;2.10;;;;;;;24.74;32.97;102504.88;110095;1275;22357;-58
2023/10/05 10:32:18;;;;;;;2.60;1.90;;;;;;;24.79;32.76;102504.61;110521;1267;22327;-55
2023/10/05 10:34:55;;;;;;;3.80;2.20;;;;;;;24.85;32.61;102500.92;110413;1267;22234;-57
2023/10/05 10:37:36;;;;;;;3.70;2.10;;;;;;;24.90;32.75;102496.20;110421;1267;23208;-58
2023/10/05 10:41:07;;;;;;;3.50;2.20;;;;;;;24.93;32.21;102493.36;110598;1269;22329;-57
2023/10/05 10:43:12;;;;;;;3.40;2.00;;;;;;;24.97;32.19;102492.60;110349;1274;22441;-57
2023/10/05 10:45:42;;;;;;;2.60;2.00;;;;;;;25.00;32.38;102488.36;110396;1272;23139;-59
2023/10/05 10:50:45;;;;;;;3.90;2.60;;;;;;;25.01;31.35;102481.02;110571;1274;22124;-57
2023/10/05 10:53:16;;;;;;;3.40;2.00;;;;;;;25.02;31.35;102477.79;110333;1267;22408;-58
2023/10/05 10:56:17;;;;;;;5.70;2.00;;;;;;;25.03;31.56;102471.83;110545;1266;22387;-56
2023/10/05 10:58:44;;;;;;;4.50;2.40;;;;;;;25.08;31.77;102468.19;110590;1272;22383;-55
2023/10/05 11:01:28;;;;;;;4.20;2.10;;;;;;;25.12;32.19;102461.42;110506;1267;22367;-60
2023/10/05 11:04:04;;;;;;;3.20;2.10;;;;;;;25.17;31.84;102459.20;110489;1267;23221;-58
2023/10/05 11:06:37;;;;;;;3.80;2.80;;;;;;;25.20;31.96;102457.78;110564;1267;22115;-62
2023/10/05 11:09:10;;;;;;;3.00;2.00;;;;;;;25.24;31.86;102455.58;110580;1269;22278;-58
2023/10/05 11:11:37;;;;;;;3.30;2.20;;;;;;;25.27;31.28;102454.51;110516;1274;23204;-62
2023/10/05 11:14:21;;;;;;;2.50;1.90;;;;;;;25.30;30.78;102455.41;110578;1274;22328;-55
2023/10/05 11:16:59;;;;;;;2.50;2.20;;;;;;;25.32;31.03;102456.16;110432;1270;22403;-57
2023/10/05 11:19:38;;;;;;;3.20;2.00;;;;;;;25.35;31.07;102454.43;110573;1266;22929;-55
2023/10/05 11:22:11;;;;;;;4.70;2.10;;;;;;;25.37;31.21;102450.73;110550;1272;22475;-56
2023/10/05 11:25:16;;;;;;;2.60;2.10;;;;;;;25.39;31.52;102441.77;110629;1266;23308;-55
2023/10/05 11:27:48;;;;;;;4.00;2.40;;;;;;;25.39;31.37;102438.20;109994;1275;22238;-55
2023/10/05 11:30:21;;;;;;;5.60;4.10;;;;;;;25.40;30.89;102432.45;109942;1278;22161;-58
2023/10/05 11:33:15;;;;;;;4.80;3.50;;;;;;;25.42;30.93;102427.89;109957;1275;23254;-57
2023/10/05 11:36:17;;;;;;;5.80;3.40;;;;;;;25.44;31.17;102421.06;109967;1262;23247;-59
2023/10/05 11:38:44;;;;;;;4.20;2.60;;;;;;;25.46;31.71;102421.48;108481;1275;1002375;-59
2023/10/05 11:41:16;;;;;;;4.20;2.40;;;;;;;25.47;31.57;102423.52;109893;1282;22248;-58
2023/10/05 11:43:44;;;;;;;4.80;2.90;;;;;;;25.48;31.29;102420.08;109863;1282;22399;-55
2023/10/05 11:46:17;;;;;;;3.50;2.50;;;;;;;25.51;31.16;102419.02;109980;1276;22502;-56
2023/10/05 11:49:05;;;;;;;5.80;3.00;;;;;;;25.53;31.11;102415.90;109871;1276;22391;-58
2023/10/05 11:51:42;;;;;;;4.50;3.40;;;;;;;25.56;30.86;102412.56;109984;1266;22165;-58
2023/10/05 11:54:09;;;;;;;6.40;3.00;;;;;;;25.59;30.64;102409.51;109966;1276;22544;-56
2023/10/05 11:56:38;;;;;;;5.10;2.70;;;;;;;25.63;30.33;102404.11;109925;1276;22161;-60
2023/10/05 11:59:07;;;;;;;3.80;2.30;;;;;;;25.63;31.07;102401.65;109976;1278;22258;-57
2023/10/05 12:01:34;;;;;;;3.80;2.80;;;;;;;25.62;31.72;102400.79;109943;1275;23077;-55
2023/10/05 12:04:04;;;;;;;4.90;2.30;;;;;;;25.63;31.25;102394.54;110089;1274;23317;-58
2023/10/05 12:06:31;;;;;;;2.70;1.90;;;;;;;25.64;30.86;102388.95;110563;1273;22849;-58